Summers, Arkansas
Current Conditions -  °F | °C
As of 8:35 AM on Saturday 25 Oct 2014 (Local Time) from KSLG Reporting Station
Clear Clear  
Wind Chill: 61°   Ceiling: Unl
Heat Index: 61°   Visibility: 9mi
Dew Point: 54°   Wind: 6mph
Humidity: 77%   Direction: 200°SSW
Pressure: 30.12"   Gusts: NA
Location:  35.98°N, 94.49°W
Report Text: KSLG 251335Z AUTO 20005KT 9SM CLR 16/12 A3012 RMK AO1
Loading
Personal Weather Stations






























Interactive Weather Map
Tropical Storm Tracking
New forecast layout! Learn more

10-Day Weather Forecast

Advertisements
Track Severe Weather on mobile